This is the latest recevied weather packets stored in our database for station/object DL7GAI-7. If no packets are shown the sender has not sent any weather packets the latest 10 day(s).
| Time | Temp. | Humidity | Pressure | Rain* | Wind** | Luminosity | Snow |
|---|---|---|---|---|---|---|---|
| 1777460655 | 15° C | 46% | 1019 hPa | 0 mm | 4.47 m/s, 90° | - | - |
| 1777459860 | 15° C | 46% | 1019 hPa | 0 mm | 4.47 m/s, 90° | - | - |
| 1777459040 | 15° C | 46% | 1019 hPa | 0 mm | 4.47 m/s, 90° | - | - |
| 1777458263 | 15° C | 46% | 1019 hPa | 0 mm | 4.47 m/s, 90° | - | - |
| 1777457465 | 15° C | 46% | 1019 hPa | 0 mm | 4.47 m/s, 90° | - | - |
| 1777456600 | 13.89° C | 49% | 1019.3 hPa | 0 mm | 3.13 m/s, 90° | - | - |
| 1777455870 | 13.89° C | 49% | 1019.3 hPa | 0 mm | 3.13 m/s, 90° | - | - |
| 1777455040 | 13.33° C | 51% | 1019.3 hPa | 0 mm | 3.13 m/s, 45° | - | - |
| 1777454245 | 13.33° C | 51% | 1019.3 hPa | 0 mm | 3.13 m/s, 45° | - | - |
| 1777453410 | 12.22° C | 52% | 1019.5 hPa | 0 mm | 2.68 m/s, 45° | - | - |
| 1777452593 | 12.22° C | 52% | 1019.5 hPa | 0 mm | 2.68 m/s, 45° | - | - |
| 1777451753 | 12.22° C | 53% | 1019.3 hPa | 0 mm | 2.24 m/s, 45° | - | - |
| 1777451010 | 12.22° C | 53% | 1019.3 hPa | 0 mm | 2.24 m/s, 45° | - | - |
| 1777450199 | 12.22° C | 53% | 1019.3 hPa | 0 mm | 2.24 m/s, 45° | - | - |
| 1777449348 | 12.22° C | 53% | 1019.1 hPa | 0 mm | 2.68 m/s, 45° | - | - |
| 1777448555 | 12.22° C | 53% | 1019.1 hPa | 0 mm | 2.68 m/s, 45° | - | - |
| 1777447710 | 12.22° C | 51% | 1018.9 hPa | 0 mm | 2.68 m/s, 45° | - | - |
| 1777446910 | 12.22° C | 51% | 1018.9 hPa | 0 mm | 2.68 m/s, 45° | - | - |
| 1777446115 | 12.22° C | 51% | 1018.5 hPa | 0 mm | 2.68 m/s, 45° | - | - |
| 1777445305 | 12.22° C | 51% | 1018.5 hPa | 0 mm | 2.68 m/s, 45° | - | - |
| 1777444485 | 12.22° C | 52% | 1018.3 hPa | 0 mm | 2.68 m/s, 45° | - | - |
| 1777443665 | 12.22° C | 52% | 1018.3 hPa | 0 mm | 2.68 m/s, 45° | - | - |
| 1777442815 | 12.22° C | 52% | 1018.3 hPa | 0 mm | 2.68 m/s, 45° | - | - |
| 1777441940 | 12.22° C | 51% | 1017.9 hPa | 0 mm | 2.24 m/s, 45° | - | - |
| 1777441160 | 12.22° C | 51% | 1017.9 hPa | 0 mm | 2.24 m/s, 45° | - | - |
* Rain latest hour (hover to see other rain measurements)
** Current wind speed in m/s (hover to see current wind gust speed)